Flight Track Log - Related Links

Times and Time Zones

All times are in EDT time to prevent confusion due to time zone crossing. See the EJA729 flight status page for this flight to view local times or setup timezone preferences in your user account.

Time Position Orientation Groundspeed Altitude Reporting Facility
EDT Latitude Longitude Course Direction KTS MPH feet Rate Location/Type
Thu 11:04:48 AM 39.5269 -107.7364 332° Northwest 99 114 5,400  Level Denver Center
Thu 11:05:50 AM 39.5175 -107.8153 261° West 190 219 8,800 4,161 Climbing Denver Center
Thu 11:06:52 AM 39.5089 -107.9161 264° West 264 304 14,000 4,306 Climbing Denver Center
Thu 11:07:54 AM 39.5725 -107.9844 320° Northwest 315 362 17,700 3,242 Climbing Denver Center
Thu 11:08:56 AM 39.6744 -108.0483 334° Northwest 369 425 20,700 2,419 Climbing Denver Center
Thu 11:09:00 AM 40.1639 -107.9846 332° Northwest  Level FlightAware Approximate
Thu 11:09:58 AM 39.7728 -108.1106 334° Northwest 408 470 22,700  Level Denver Center
Thu 11:11:00 AM 39.9003 -108.1917 334° Northwest 460 529 25,000 2,032 Climbing Denver Center
Thu 11:12:02 AM 40.0078 -108.2611 334° Northwest 450 518 26,900 1,968 Climbing Denver Center
Thu 11:13:05 AM 40.1392 -108.3450 334° Northwest 470 541 29,100 1,488 Climbing Denver Center
Thu 11:14:07 AM 40.2517 -108.4169 334° Northwest 471 542 30,000 435 Climbing Denver Center
Thu 11:15:09 AM 40.3897 -108.5078 333° Northwest 494 568 30,000  Level Denver Center
Thu 11:16:11 AM 40.5083 -108.5844 334° Northwest 497 572 30,000  Level Denver Center
Thu 11:17:13 AM 40.6447 -108.6764 333° Northwest 495 570 30,000  Level Denver Center
Thu 11:18:15 AM 40.7731 -108.7589 334° Northwest 494 568 30,000  Level Denver Center
Thu 11:19:17 AM 40.8919 -108.8369 334° Northwest 497 572 30,000  Level Denver Center
Thu 11:20:19 AM 41.0269 -108.9264 333° Northwest 485 558 30,000  Level Denver Center
Thu 11:21:21 AM 41.1389 -109.0008 333° Northwest 473 544 30,000  Level Denver Center
Thu 11:22:23 AM 41.2683 -109.0875 333° Northwest 466 536 30,000  Level Denver Center
Thu 11:23:25 AM 41.3811 -109.1639 333° Northwest 466 536 30,000  Level Denver Center
Thu 11:24:46 AM 41.5350 -109.2700 333° Northwest 474 545 30,000  Level Salt Lake Center
Thu 11:25:48 AM 41.6636 -109.3564 333° Northwest 466 536 30,000  Level Salt Lake Center
Thu 11:26:50 AM 41.7731 -109.4314 333° Northwest 462 532 30,000  Level Salt Lake Center
Thu 11:27:52 AM 41.9008 -109.5197 333° Northwest 463 533 30,000  Level Salt Lake Center
Thu 11:28:54 AM 42.0108 -109.5947 333° Northwest 462 532 30,000  Level Salt Lake Center
Thu 11:29:56 AM 42.1389 -109.6842 333° Northwest 464 534 30,000  Level Salt Lake Center
Thu 11:30:58 AM 42.2489 -109.7608 333° Northwest 465 535 30,000  Level Salt Lake Center
Thu 11:32:00 AM 42.3600 -109.8378 333° Northwest 466 536 30,000 -387 Level Salt Lake Center
Thu 11:33:02 AM 42.4883 -109.9272 333° Northwest 465 535 29,200 -1,113 Descending Salt Lake Center
Thu 11:34:04 AM 42.5975 -110.0028 333° Northwest 460 529 27,700 -1,500 Descending Salt Lake Center
Thu 11:35:06 AM 42.7164 -110.0875 332° Northwest 448 516 26,100 -1,597 Descending Salt Lake Center
Thu 11:36:08 AM 42.8367 -110.1711 333° Northwest 436 502 24,400 -1,500 Descending Salt Lake Center
Thu 11:37:10 AM 42.9378 -110.2444 332° Northwest 430 495 23,000 -1,403 Descending Salt Lake Center
Thu 11:38:12 AM 43.0389 -110.3172 332° Northwest 429 494 21,500 -1,742 Descending Salt Lake Center
Thu 11:39:14 AM 43.1603 -110.4019 333° Northwest 425 489 19,400 -1,984 Descending Salt Lake Center
Thu 11:40:16 AM 43.2583 -110.4692 333° Northwest 398 458 17,400 -1,935 Descending Salt Lake Center
Thu 11:41:18 AM 43.3497 -110.5353 332° Northwest 374 430 15,400 -1,355 Descending Salt Lake Center
Thu 11:42:20 AM 43.4325 -110.5950 332° Northwest 342 394 14,600 -1,403 Descending Salt Lake Center
Thu 11:43:22 AM 43.5144 -110.6350 341° North 324 373 12,500 -1,872 Descending Salt Lake Center
Thu 11:44:25 AM 43.5981 -110.6694 343° North 297 342 10,700 -1,584 Descending Salt Lake Center
Thu 11:45:27 AM 43.6583 -110.6439 17° North 255 293 9,200 -1,500 Descending Salt Lake Center
Thu 11:46:29 AM 43.6756 -110.7036 292° West 217 250 7,600 -1,113 Descending Salt Lake Center
Thu 11:47:31 AM 43.6356 -110.7242 200° South 172 198 6,900 -677 Descending Salt Lake Center

Login

Don't have an account? Register now (free) for customized features, flight alerts, and more!